createdAt,value
2023-02-11T00:01:16.027Z,23.25
2023-02-11T00:03:43.771Z,24.55
2023-02-11T00:06:12.271Z,27.92
2023-02-11T00:08:40.458Z,37.22
2023-02-11T00:11:08.851Z,29.12
2023-02-11T00:13:36.501Z,29.55
2023-02-11T00:16:09.394Z,29.85
2023-02-11T00:18:37.683Z,29.75
2023-02-11T00:21:17.064Z,32.10
2023-02-11T00:23:45.543Z,24.95
2023-02-11T00:26:16.244Z,28.58
2023-02-11T00:28:44.568Z,25.88
2023-02-11T00:31:13.581Z,27.50
2023-02-11T00:33:42.021Z,27.10
2023-02-11T00:36:14.553Z,30.67
2023-02-11T00:38:45.420Z,23.65
2023-02-11T00:41:14.528Z,26.77
2023-02-11T00:43:42.700Z,24.50
2023-02-11T00:46:11.367Z,25.23
2023-02-11T00:48:39.228Z,24.70
2023-02-11T00:51:07.170Z,24.42
2023-02-11T00:53:35.773Z,24.92
2023-02-11T00:56:03.839Z,24.85
2023-02-11T00:58:31.756Z,23.52
2023-02-11T01:00:59.695Z,22.02
2023-02-11T01:03:27.746Z,25.10
2023-02-11T01:05:55.415Z,25.33
2023-02-11T01:08:23.399Z,22.73
2023-02-11T01:11:03.096Z,19.42
2023-02-11T01:13:32.327Z,24.10
2023-02-11T01:16:00.127Z,27.92
2023-02-11T01:18:28.483Z,22.37
2023-02-11T01:20:56.378Z,23.35
2023-02-11T01:23:24.125Z,24.05
2023-02-11T01:25:53.079Z,22.73
2023-02-11T01:28:30.146Z,24.08
2023-02-11T01:30:58.489Z,21.25
2023-02-11T01:33:26.205Z,26.67
2023-02-11T01:35:53.972Z,26.40
2023-02-11T01:38:26.771Z,25.17
2023-02-11T01:41:00.859Z,23.65
2023-02-11T01:43:45.989Z,27.48
2023-02-11T01:46:32.803Z,23.85
2023-02-11T01:49:22.532Z,24.77
2023-02-11T01:52:10.994Z,27.05
2023-02-11T01:55:02.400Z,29.23
2023-02-11T01:57:32.642Z,27.65
2023-02-11T02:00:22.631Z,31.08
2023-02-11T02:03:03.480Z,25.62
2023-02-11T02:06:19.340Z,20.67
2023-02-11T02:09:00.395Z,23.30
2023-02-11T02:11:28.329Z,24.58
2023-02-11T02:13:56.124Z,30.58
2023-02-11T02:16:30.830Z,30.20
2023-02-11T02:19:38.850Z,24.17
2023-02-11T02:22:28.102Z,21.20
2023-02-11T02:25:16.968Z,27.67
2023-02-11T02:28:13.740Z,28.30
2023-02-11T02:31:06.290Z,27.65
2023-02-11T02:33:51.272Z,25.35
2023-02-11T02:36:29.300Z,30.67
2023-02-11T02:39:03.099Z,26.52
2023-02-11T02:41:36.286Z,22.70
2023-02-11T02:44:04.559Z,18.83
2023-02-11T02:46:33.917Z,20.27
2023-02-11T02:49:02.270Z,21.75
2023-02-11T02:51:48.082Z,25.60
2023-02-11T02:54:53.699Z,30.05
2023-02-11T02:57:41.469Z,28.95
2023-02-11T03:00:34.228Z,26.65
2023-02-11T03:03:25.482Z,28.02
2023-02-11T03:05:59.757Z,24.00
2023-02-11T03:08:44.694Z,26.92
2023-02-11T03:11:13.568Z,27.35
2023-02-11T03:13:42.789Z,29.12
2023-02-11T03:16:20.459Z,24.73
2023-02-11T03:18:54.004Z,21.80
2023-02-11T03:21:23.690Z,25.55
2023-02-11T03:23:57.440Z,22.98
2023-02-11T03:26:36.910Z,24.75
2023-02-11T03:29:16.527Z,20.62
2023-02-11T03:31:47.103Z,20.30
2023-02-11T03:34:23.099Z,25.77
2023-02-11T03:37:16.828Z,23.02
2023-02-11T03:39:56.727Z,25.48
2023-02-11T03:42:29.971Z,27.73
2023-02-11T03:45:05.240Z,22.98
2023-02-11T03:47:37.207Z,23.95
2023-02-11T03:50:09.449Z,28.58
2023-02-11T03:52:39.320Z,23.48
2023-02-11T03:55:13.601Z,24.52
2023-02-11T03:57:41.397Z,25.52
2023-02-11T04:00:10.496Z,23.35
2023-02-11T04:02:39.387Z,26.52
2023-02-11T04:05:09.163Z,26.25
2023-02-11T04:07:36.978Z,27.23
2023-02-11T04:10:05.630Z,22.87
2023-02-11T04:12:33.470Z,24.05
2023-02-11T04:15:01.210Z,21.92
2023-02-11T04:17:28.989Z,24.40
2023-02-11T04:19:56.652Z,26.92
2023-02-11T04:22:24.388Z,19.80
2023-02-11T04:24:52.162Z,23.80
2023-02-11T04:27:19.921Z,26.37
2023-02-11T04:29:47.568Z,26.62
2023-02-11T04:32:15.796Z,22.27
2023-02-11T04:34:43.619Z,30.52
2023-02-11T04:37:11.287Z,25.83
2023-02-11T04:39:39.215Z,24.87
2023-02-11T04:42:07.040Z,32.30
2023-02-11T04:44:34.920Z,30.52
2023-02-11T04:47:02.714Z,29.05
2023-02-11T04:49:30.502Z,26.52
2023-02-11T04:51:58.185Z,24.75
2023-02-11T04:54:25.915Z,27.50
2023-02-11T04:56:53.621Z,29.20
2023-02-11T04:59:21.348Z,28.90
2023-02-11T05:01:49.052Z,28.98
2023-02-11T05:04:17.776Z,25.45
2023-02-11T05:06:45.572Z,23.73
2023-02-11T05:09:14.093Z,23.55
2023-02-11T05:11:42.046Z,26.50
2023-02-11T05:14:09.783Z,27.52
2023-02-11T05:16:37.614Z,26.20
2023-02-11T05:19:05.553Z,30.05
2023-02-11T05:21:33.419Z,28.52
2023-02-11T05:24:01.150Z,26.42
2023-02-11T05:26:28.921Z,29.50
2023-02-11T05:28:57.340Z,29.90
2023-02-11T05:31:25.066Z,27.23
2023-02-11T05:33:52.894Z,30.25
2023-02-11T05:36:20.601Z,29.23
2023-02-11T05:38:48.347Z,30.23
2023-02-11T05:41:16.078Z,25.90
2023-02-11T05:43:43.902Z,24.98
2023-02-11T05:46:11.684Z,27.60
2023-02-11T05:48:39.417Z,28.85
2023-02-11T05:51:07.119Z,23.83
2023-02-11T05:53:34.796Z,27.85
2023-02-11T05:56:02.660Z,26.42
2023-02-11T05:58:30.399Z,35.72
2023-02-11T06:00:58.172Z,36.83
2023-02-11T06:03:25.931Z,30.30
2023-02-11T06:05:53.608Z,26.98
2023-02-11T06:08:21.371Z,30.67
2023-02-11T06:10:49.140Z,29.35
2023-02-11T06:13:19.683Z,36.83
2023-02-11T06:15:57.374Z,35.00
2023-02-11T06:18:25.369Z,29.37
2023-02-11T06:20:53.331Z,27.95
2023-02-11T06:23:21.084Z,33.45
2023-02-11T06:25:49.420Z,32.78
2023-02-11T06:28:17.542Z,28.80
2023-02-11T06:30:45.593Z,31.58
2023-02-11T06:33:13.277Z,30.85
2023-02-11T06:35:41.224Z,34.90
2023-02-11T06:38:08.911Z,26.87
2023-02-11T06:40:36.673Z,26.17
2023-02-11T06:43:04.339Z,34.63
2023-02-11T06:45:32.057Z,29.10
2023-02-11T06:47:59.879Z,30.30
2023-02-11T06:50:27.608Z,31.60
2023-02-11T06:52:55.256Z,34.80
2023-02-11T06:55:22.914Z,32.80
2023-02-11T06:57:50.663Z,36.15
2023-02-11T07:00:18.734Z,33.65
2023-02-11T07:02:46.505Z,34.15
2023-02-11T07:05:14.342Z,30.65
2023-02-11T07:07:41.988Z,33.00
2023-02-11T07:10:10.448Z,30.05
2023-02-11T07:12:38.780Z,32.13
2023-02-11T07:15:07.349Z,30.90
2023-02-11T07:17:36.697Z,32.72
2023-02-11T07:20:05.289Z,27.77
2023-02-11T07:22:32.993Z,24.10
2023-02-11T07:25:00.732Z,33.83
2023-02-11T07:27:28.436Z,29.80
2023-02-11T07:29:56.046Z,32.30
2023-02-11T07:32:23.796Z,29.40
2023-02-11T07:34:51.725Z,35.05
2023-02-11T07:37:20.029Z,30.60
2023-02-11T07:39:47.810Z,28.58
2023-02-11T07:42:15.579Z,30.35
2023-02-11T07:44:43.270Z,26.27
2023-02-11T07:47:10.974Z,29.48
2023-02-11T07:49:38.731Z,29.73
2023-02-11T07:52:06.569Z,35.95
2023-02-11T07:54:34.267Z,32.67
2023-02-11T07:57:01.949Z,33.08
2023-02-11T07:59:29.661Z,33.63
2023-02-11T08:01:57.489Z,33.70
2023-02-11T08:04:25.175Z,32.55
2023-02-11T08:06:55.499Z,34.40
2023-02-11T08:09:25.013Z,31.17
2023-02-11T08:11:52.747Z,31.42
2023-02-11T08:14:21.705Z,38.47
2023-02-11T08:16:49.410Z,30.80
2023-02-11T08:19:18.496Z,34.70
2023-02-11T08:21:46.243Z,33.88
2023-02-11T08:24:13.992Z,37.38
2023-02-11T08:26:42.209Z,35.75
2023-02-11T08:29:12.862Z,35.97
2023-02-11T08:31:43.162Z,32.22
2023-02-11T08:34:12.637Z,34.92
2023-02-11T08:36:41.416Z,34.22
2023-02-11T08:39:19.668Z,36.28
2023-02-11T08:41:50.245Z,36.88
2023-02-11T08:44:19.406Z,39.58
2023-02-11T08:46:48.157Z,37.13
2023-02-11T08:49:16.421Z,38.00
2023-02-11T08:51:44.937Z,30.85
2023-02-11T08:54:13.210Z,32.95
2023-02-11T08:56:41.201Z,34.40
2023-02-11T08:59:10.372Z,36.67
2023-02-11T09:01:38.250Z,34.95
2023-02-11T09:04:06.511Z,38.60
2023-02-11T09:06:34.284Z,35.08
2023-02-11T09:09:02.117Z,35.92
2023-02-11T09:11:33.200Z,34.00
2023-02-11T09:14:01.872Z,37.15
2023-02-11T09:16:34.921Z,36.88
2023-02-11T09:19:04.087Z,33.63
2023-02-11T09:21:32.320Z,35.17
2023-02-11T09:24:00.297Z,31.55
2023-02-11T09:26:31.488Z,25.80
2023-02-11T09:28:59.762Z,32.15
2023-02-11T09:31:29.919Z,37.33
2023-02-11T09:34:01.745Z,33.30
2023-02-11T09:36:35.214Z,30.33
2023-02-11T09:39:05.053Z,29.20
2023-02-11T09:41:51.316Z,34.33
2023-02-11T09:44:23.459Z,32.72
2023-02-11T09:47:00.928Z,33.17
2023-02-11T09:49:45.495Z,35.33
2023-02-11T09:52:31.575Z,39.08
2023-02-11T09:55:03.331Z,28.67
2023-02-11T09:57:37.297Z,32.67
2023-02-11T10:00:18.127Z,32.58
2023-02-11T10:03:10.560Z,36.65
2023-02-11T10:06:05.628Z,30.35
2023-02-11T10:09:10.684Z,33.38
2023-02-11T10:11:58.399Z,35.50
2023-02-11T10:14:50.717Z,33.03
2023-02-11T10:17:36.240Z,33.13
2023-02-11T10:20:34.633Z,37.80
2023-02-11T10:23:11.631Z,29.12
2023-02-11T10:25:45.384Z,34.03
2023-02-11T10:28:22.245Z,38.15
2023-02-11T10:31:07.066Z,31.02
2023-02-11T10:33:50.185Z,30.33
2023-02-11T10:36:19.458Z,30.45
2023-02-11T10:38:47.564Z,32.60
2023-02-11T10:41:36.841Z,30.80
2023-02-11T10:44:08.404Z,33.20
2023-02-11T10:46:41.225Z,32.53
2023-02-11T10:49:09.081Z,34.40
2023-02-11T10:51:36.897Z,31.48
2023-02-11T10:54:20.488Z,30.23
2023-02-11T10:56:59.710Z,30.58
2023-02-11T10:59:41.283Z,35.47
2023-02-11T11:02:39.899Z,40.40
2023-02-11T11:05:21.045Z,36.40
2023-02-11T11:08:00.885Z,35.08
2023-02-11T11:10:30.448Z,37.05
2023-02-11T11:12:58.398Z,39.33
2023-02-11T11:15:31.916Z,32.50
2023-02-11T11:18:22.627Z,32.80
2023-02-11T11:21:01.302Z,35.58
2023-02-11T11:23:31.912Z,37.00
2023-02-11T11:26:12.739Z,36.58
2023-02-11T11:28:53.591Z,38.50
2023-02-11T11:31:26.057Z,39.35
2023-02-11T11:33:56.784Z,32.47
2023-02-11T11:36:33.661Z,29.37
2023-02-11T11:39:05.575Z,31.30
2023-02-11T11:41:36.005Z,33.17
2023-02-11T11:44:35.719Z,32.75
2023-02-11T11:47:12.359Z,32.83
2023-02-11T11:49:57.047Z,33.00
2023-02-11T11:52:47.643Z,33.95
2023-02-11T11:55:45.872Z,37.30
2023-02-11T11:58:24.245Z,34.42
2023-02-11T12:01:03.177Z,29.77
2023-02-11T12:03:48.132Z,31.92
2023-02-11T12:06:31.050Z,38.90
2023-02-11T12:09:01.689Z,34.35
2023-02-11T12:11:38.255Z,34.88
2023-02-11T12:14:17.280Z,34.05
2023-02-11T12:16:50.999Z,32.20
2023-02-11T12:20:01.477Z,38.60
2023-02-11T12:22:37.053Z,29.58
2023-02-11T12:25:04.961Z,34.60
2023-02-11T12:27:51.802Z,36.65
2023-02-11T12:30:29.989Z,36.63
2023-02-11T12:33:18.898Z,33.92
2023-02-11T12:36:24.214Z,37.95
2023-02-11T12:39:13.302Z,39.88
2023-02-11T12:42:44.838Z,38.53
2023-02-11T12:45:12.448Z,35.83
2023-02-11T12:48:06.122Z,34.33
2023-02-11T12:50:57.945Z,33.85
2023-02-11T12:53:37.587Z,34.03
2023-02-11T12:56:12.666Z,29.33
2023-02-11T12:58:45.408Z,35.80
2023-02-11T13:01:33.665Z,33.10
2023-02-11T13:04:12.331Z,33.65
2023-02-11T13:06:50.257Z,33.22
2023-02-11T13:09:29.247Z,35.08
2023-02-11T13:12:00.104Z,30.48
2023-02-11T13:14:27.841Z,32.40
2023-02-11T13:16:59.698Z,32.05
2023-02-11T13:19:35.909Z,31.52
2023-02-11T13:22:09.678Z,31.10
2023-02-11T13:25:03.339Z,32.22
2023-02-11T13:27:41.644Z,35.45
2023-02-11T13:30:52.316Z,32.90
2023-02-11T13:33:33.996Z,30.80
2023-02-11T13:36:04.476Z,30.85
2023-02-11T13:38:33.888Z,36.78
2023-02-11T13:41:05.121Z,32.50
2023-02-11T13:43:36.506Z,29.95
2023-02-11T13:46:13.133Z,27.77
2023-02-11T13:48:48.629Z,27.13
2023-02-11T13:51:20.151Z,31.87
2023-02-11T13:53:51.902Z,30.42
2023-02-11T13:56:29.463Z,30.67
2023-02-11T13:59:01.480Z,29.05
2023-02-11T14:02:08.234Z,27.75
2023-02-11T14:04:54.756Z,29.80
2023-02-11T14:07:52.420Z,25.20
2023-02-11T14:10:44.892Z,29.48
2023-02-11T14:13:31.417Z,29.48
2023-02-11T14:16:28.149Z,27.70
2023-02-11T14:19:03.660Z,30.30
2023-02-11T14:21:35.949Z,32.05
2023-02-11T14:24:03.643Z,34.30
2023-02-11T14:26:55.759Z,30.95
2023-02-11T14:29:38.443Z,29.55
2023-02-11T14:32:11.922Z,31.15
2023-02-11T14:34:51.360Z,33.20
2023-02-11T14:37:37.922Z,33.97
2023-02-11T14:40:29.241Z,31.83
2023-02-11T14:42:59.314Z,31.05
2023-02-11T14:45:29.938Z,30.85
2023-02-11T14:48:18.768Z,32.22
2023-02-11T14:50:53.154Z,33.30
2023-02-11T14:53:24.990Z,33.70
2023-02-11T14:55:55.230Z,30.20
2023-02-11T14:58:26.808Z,33.90
2023-02-11T15:00:56.577Z,33.97
2023-02-11T15:03:37.481Z,29.63
2023-02-11T15:06:23.633Z,32.80
2023-02-11T15:09:12.908Z,32.75
2023-02-11T15:11:43.604Z,29.02
2023-02-11T15:14:19.917Z,31.25
2023-02-11T15:16:48.633Z,30.55
2023-02-11T15:19:37.935Z,30.12
2023-02-11T15:22:08.527Z,32.08
2023-02-11T15:24:37.020Z,34.45
2023-02-11T15:27:13.930Z,31.30
2023-02-11T15:29:51.777Z,33.05
2023-02-11T15:32:22.858Z,33.65
2023-02-11T15:34:53.215Z,33.38
2023-02-11T15:37:26.906Z,31.30
2023-02-11T15:39:56.214Z,34.13
2023-02-11T15:42:32.528Z,31.60
2023-02-11T15:45:30.057Z,30.60
2023-02-11T15:48:27.700Z,30.05
2023-02-11T15:50:59.955Z,31.87
2023-02-11T15:53:32.682Z,29.25
2023-02-11T15:56:13.348Z,35.13
2023-02-11T15:58:44.579Z,31.08
2023-02-11T16:01:13.835Z,30.10
2023-02-11T16:03:43.675Z,31.95
2023-02-11T16:06:49.654Z,34.97
2023-02-11T16:09:17.336Z,29.50
2023-02-11T16:11:48.253Z,31.58
2023-02-11T16:14:40.429Z,33.38
2023-02-11T16:17:25.152Z,31.42
2023-02-11T16:19:54.790Z,28.52
2023-02-11T16:22:31.549Z,30.05
2023-02-11T16:25:01.010Z,28.10
2023-02-11T16:27:40.913Z,30.25
2023-02-11T16:30:28.957Z,30.40
2023-02-11T16:32:56.768Z,30.45
2023-02-11T16:35:24.550Z,29.10
2023-02-11T16:37:52.437Z,32.22
2023-02-11T16:40:20.242Z,30.37
2023-02-11T16:42:47.992Z,30.67
2023-02-11T16:45:16.591Z,26.58
2023-02-11T16:47:44.579Z,28.75
2023-02-11T16:50:20.728Z,30.58
2023-02-11T16:52:49.546Z,24.65
2023-02-11T16:55:17.371Z,32.55
2023-02-11T16:57:45.308Z,30.73
2023-02-11T17:00:17.296Z,28.50
2023-02-11T17:02:45.218Z,33.20
2023-02-11T17:05:24.180Z,27.90
2023-02-11T17:07:52.704Z,36.83
2023-02-11T17:10:23.775Z,30.98
2023-02-11T17:12:52.549Z,32.92
2023-02-11T17:15:20.293Z,29.85
2023-02-11T17:17:48.066Z,30.83
2023-02-11T17:20:16.541Z,28.65
2023-02-11T17:22:44.381Z,30.90
2023-02-11T17:25:12.567Z,31.52
2023-02-11T17:27:40.486Z,32.15
2023-02-11T17:30:09.093Z,26.45
2023-02-11T17:32:38.024Z,34.13
2023-02-11T17:35:09.281Z,32.97
2023-02-11T17:37:37.177Z,33.53
2023-02-11T17:40:05.055Z,34.75
2023-02-11T17:45:00.463Z,31.98
2023-02-11T17:47:28.144Z,34.40
2023-02-11T17:49:55.954Z,27.45
2023-02-11T17:52:25.385Z,32.38
2023-02-11T17:54:53.128Z,31.77
2023-02-11T17:57:21.265Z,34.22
2023-02-11T17:59:49.074Z,34.03
2023-02-11T18:02:16.930Z,37.67
2023-02-11T18:04:45.665Z,33.92
2023-02-11T18:07:13.775Z,39.55
2023-02-11T18:09:42.053Z,36.50
2023-02-11T18:12:10.457Z,31.33
2023-02-11T18:14:42.088Z,33.83
2023-02-11T18:17:10.053Z,32.58
2023-02-11T18:19:38.718Z,37.72
2023-02-11T18:22:06.570Z,44.53
2023-02-11T18:24:34.284Z,38.15
2023-02-11T18:27:02.372Z,42.42
2023-02-11T18:29:30.082Z,37.83
2023-02-11T18:31:58.322Z,41.28
2023-02-11T18:34:27.106Z,40.58
2023-02-11T18:36:55.311Z,37.50
2023-02-11T18:39:25.500Z,41.65
2023-02-11T18:41:57.798Z,36.00
2023-02-11T18:44:26.059Z,40.97
2023-02-11T18:46:54.573Z,36.28
2023-02-11T18:49:22.336Z,37.53
2023-02-11T18:51:50.148Z,43.13
2023-02-11T18:54:17.960Z,45.35
2023-02-11T18:56:45.735Z,38.63
2023-02-11T18:59:13.800Z,37.35
2023-02-11T19:01:44.545Z,36.17
2023-02-11T19:04:12.533Z,43.55
2023-02-11T19:06:40.633Z,41.40
2023-02-11T19:09:11.404Z,44.75
2023-02-11T19:11:51.317Z,42.45
2023-02-11T19:14:32.604Z,41.28
2023-02-11T19:17:02.664Z,41.33
2023-02-11T19:19:32.904Z,40.90
2023-02-11T19:22:02.055Z,45.33
2023-02-11T19:24:31.002Z,45.10
2023-02-11T19:27:01.271Z,41.00
2023-02-11T19:29:29.965Z,39.25
2023-02-11T19:31:57.717Z,40.72
2023-02-11T19:34:25.597Z,37.85
2023-02-11T19:36:55.313Z,46.97
2023-02-11T19:39:25.063Z,42.53
2023-02-11T19:41:53.574Z,47.90
2023-02-11T19:44:21.384Z,41.30
2023-02-11T19:46:51.378Z,40.30
2023-02-11T19:49:24.036Z,38.15
2023-02-11T19:51:53.263Z,40.17
2023-02-11T19:54:21.582Z,42.80
2023-02-11T19:56:49.983Z,36.60
2023-02-11T19:59:17.873Z,45.17
2023-02-11T20:01:48.611Z,47.08
2023-02-11T20:04:19.217Z,43.63
2023-02-11T20:06:49.427Z,48.67
2023-02-11T20:09:17.368Z,39.72
2023-02-11T20:11:45.627Z,49.10
2023-02-11T20:14:15.777Z,48.30
2023-02-11T20:16:49.289Z,41.37
2023-02-11T20:19:20.441Z,45.28
2023-02-11T20:21:50.086Z,43.53
2023-02-11T20:24:19.818Z,47.08
2023-02-11T20:26:49.329Z,45.97
2023-02-11T20:29:18.680Z,49.08
2023-02-11T20:31:46.897Z,51.35
2023-02-11T20:34:14.700Z,49.10
2023-02-11T20:36:42.692Z,43.22
2023-02-11T20:39:12.250Z,41.72
2023-02-11T20:41:40.905Z,50.05
2023-02-11T20:44:11.587Z,41.75
2023-02-11T20:46:42.965Z,46.60
2023-02-11T20:49:20.728Z,40.05
2023-02-11T20:51:48.564Z,41.13
2023-02-11T20:54:19.831Z,46.63
2023-02-11T20:56:49.130Z,34.95
2023-02-11T20:59:17.878Z,35.40
2023-02-11T21:01:49.879Z,37.03
2023-02-11T21:04:21.235Z,38.75
2023-02-11T21:06:51.659Z,42.25
2023-02-11T21:09:23.049Z,34.45
2023-02-11T21:11:52.779Z,36.28
2023-02-11T21:14:22.239Z,37.53
2023-02-11T21:16:50.431Z,37.75
2023-02-11T21:19:18.137Z,32.80
2023-02-11T21:21:45.830Z,36.15
2023-02-11T21:24:13.960Z,35.40
2023-02-11T21:26:41.827Z,33.15
2023-02-11T21:29:09.806Z,36.38
2023-02-11T21:31:38.230Z,35.67
2023-02-11T21:34:07.047Z,41.97
2023-02-11T21:36:35.129Z,36.63
2023-02-11T21:39:04.906Z,33.85
2023-02-11T21:41:32.919Z,36.05
2023-02-11T21:44:00.610Z,34.90
2023-02-11T21:46:30.362Z,37.72
2023-02-11T21:48:59.370Z,47.50
2023-02-11T21:51:27.530Z,44.67
2023-02-11T21:54:02.398Z,41.42
2023-02-11T21:56:32.415Z,43.15
2023-02-11T21:59:00.868Z,45.55
2023-02-11T22:01:34.065Z,37.50
2023-02-11T22:04:01.750Z,33.97
2023-02-11T22:06:32.137Z,29.58
2023-02-11T22:09:02.827Z,27.40
2023-02-11T22:11:30.583Z,38.10
2023-02-11T22:13:58.976Z,44.50
2023-02-11T22:16:28.756Z,34.70
2023-02-11T22:18:59.517Z,37.92
2023-02-11T22:21:28.134Z,33.92
2023-02-11T22:23:57.037Z,27.92
2023-02-11T22:26:26.866Z,33.45
2023-02-11T22:28:54.912Z,29.37
2023-02-11T22:31:29.685Z,29.85
2023-02-11T22:33:58.598Z,29.95
2023-02-11T22:36:29.358Z,33.90
2023-02-11T22:39:00.505Z,28.95
2023-02-11T22:41:28.339Z,24.55
2023-02-11T22:43:56.030Z,35.58
2023-02-11T22:46:23.855Z,35.70
2023-02-11T22:48:52.427Z,33.08
2023-02-11T22:51:23.378Z,38.50
2023-02-11T22:53:59.263Z,33.33
2023-02-11T22:56:28.257Z,34.05
2023-02-11T22:58:59.656Z,36.03
2023-02-11T23:01:28.027Z,33.95
2023-02-11T23:03:55.959Z,36.78
2023-02-11T23:06:24.039Z,36.50
2023-02-11T23:08:51.864Z,33.65
2023-02-11T23:11:22.752Z,39.00
2023-02-11T23:13:53.024Z,35.90
2023-02-11T23:16:24.089Z,39.30
2023-02-11T23:18:52.517Z,34.05
2023-02-11T23:21:30.359Z,35.15
2023-02-11T23:24:05.168Z,33.80
2023-02-11T23:26:33.225Z,38.83
2023-02-11T23:29:01.381Z,43.65
2023-02-11T23:31:31.957Z,43.67
2023-02-11T23:33:59.616Z,42.20
2023-02-11T23:36:27.737Z,37.75
2023-02-11T23:38:55.535Z,36.47
2023-02-11T23:41:24.362Z,38.80
2023-02-11T23:43:53.858Z,31.87
2023-02-11T23:46:25.591Z,36.47
2023-02-11T23:48:54.275Z,39.67
2023-02-11T23:51:22.294Z,35.72
2023-02-11T23:53:50.841Z,35.00
2023-02-11T23:56:20.926Z,38.42
2023-02-11T23:58:53.935Z,32.17
